sensor_id;sensor_type;location;lat;lon;timestamp;P1;durP1;ratioP1;P2;durP2;ratioP2
37997;SDS011;24079;51.824;4.682;2023-05-02T00:01:52;21.80;;;11.15;;
37997;SDS011;24079;51.824;4.682;2023-05-02T00:04:18;17.23;;;11.02;;
37997;SDS011;24079;51.824;4.682;2023-05-02T00:06:44;23.52;;;12.10;;
37997;SDS011;24079;51.824;4.682;2023-05-02T00:09:11;22.95;;;12.73;;
37997;SDS011;24079;51.824;4.682;2023-05-02T00:11:37;19.45;;;11.95;;
37997;SDS011;24079;51.824;4.682;2023-05-02T00:14:03;22.65;;;13.23;;
37997;SDS011;24079;51.824;4.682;2023-05-02T00:16:29;19.42;;;12.73;;
37997;SDS011;24079;51.824;4.682;2023-05-02T00:18:55;22.63;;;12.57;;
37997;SDS011;24079;51.824;4.682;2023-05-02T00:21:21;22.33;;;13.65;;
37997;SDS011;24079;51.824;4.682;2023-05-02T00:23:47;22.48;;;12.65;;
37997;SDS011;24079;51.824;4.682;2023-05-02T00:26:15;20.15;;;12.57;;
37997;SDS011;24079;51.824;4.682;2023-05-02T00:28:41;20.13;;;12.35;;
37997;SDS011;24079;51.824;4.682;2023-05-02T00:31:07;20.83;;;13.13;;
37997;SDS011;24079;51.824;4.682;2023-05-02T00:33:33;24.38;;;13.15;;
37997;SDS011;24079;51.824;4.682;2023-05-02T00:35:59;25.75;;;13.43;;
37997;SDS011;24079;51.824;4.682;2023-05-02T00:38:25;23.13;;;13.70;;
37997;SDS011;24079;51.824;4.682;2023-05-02T00:40:51;22.88;;;13.73;;
37997;SDS011;24079;51.824;4.682;2023-05-02T00:43:17;22.60;;;12.80;;
37997;SDS011;24079;51.824;4.682;2023-05-02T00:45:44;21.65;;;13.13;;
37997;SDS011;24079;51.824;4.682;2023-05-02T00:48:11;22.55;;;12.80;;
37997;SDS011;24079;51.824;4.682;2023-05-02T00:50:38;21.83;;;13.45;;
37997;SDS011;24079;51.824;4.682;2023-05-02T00:53:06;24.00;;;14.50;;
37997;SDS011;24079;51.824;4.682;2023-05-02T00:55:33;23.60;;;13.32;;
37997;SDS011;24079;51.824;4.682;2023-05-02T00:58:00;19.52;;;13.02;;
37997;SDS011;24079;51.824;4.682;2023-05-02T01:00:33;22.65;;;13.88;;
37997;SDS011;24079;51.824;4.682;2023-05-02T01:03:14;24.80;;;13.77;;
37997;SDS011;24079;51.824;4.682;2023-05-02T01:05:52;26.17;;;14.50;;
37997;SDS011;24079;51.824;4.682;2023-05-02T01:11:51;22.33;;;13.32;;
37997;SDS011;24079;51.824;4.682;2023-05-02T01:14:24;19.25;;;10.88;;
37997;SDS011;24079;51.824;4.682;2023-05-02T01:16:57;24.60;;;12.45;;
37997;SDS011;24079;51.824;4.682;2023-05-02T01:19:31;20.65;;;12.07;;
37997;SDS011;24079;51.824;4.682;2023-05-02T01:24:30;21.17;;;12.07;;
37997;SDS011;24079;51.824;4.682;2023-05-02T01:27:10;19.85;;;9.98;;
37997;SDS011;24079;51.824;4.682;2023-05-02T01:29:38;19.40;;;8.07;;
37997;SDS011;24079;51.824;4.682;2023-05-02T01:32:06;19.15;;;7.35;;
37997;SDS011;24079;51.824;4.682;2023-05-02T01:34:33;18.95;;;8.10;;
37997;SDS011;24079;51.824;4.682;2023-05-02T01:37:03;14.70;;;7.40;;
37997;SDS011;24079;51.824;4.682;2023-05-02T01:39:31;20.88;;;7.35;;
37997;SDS011;24079;51.824;4.682;2023-05-02T01:41:58;16.80;;;6.15;;
37997;SDS011;24079;51.824;4.682;2023-05-02T01:44:27;20.08;;;7.13;;
37997;SDS011;24079;51.824;4.682;2023-05-02T01:46:54;16.33;;;5.38;;
37997;SDS011;24079;51.824;4.682;2023-05-02T01:49:22;16.52;;;6.10;;
37997;SDS011;24079;51.824;4.682;2023-05-02T01:51:49;19.70;;;6.65;;
37997;SDS011;24079;51.824;4.682;2023-05-02T01:54:16;22.33;;;6.03;;
37997;SDS011;24079;51.824;4.682;2023-05-02T01:56:44;21.35;;;5.80;;
37997;SDS011;24079;51.824;4.682;2023-05-02T01:59:11;18.02;;;4.55;;
37997;SDS011;24079;51.824;4.682;2023-05-02T02:01:40;15.00;;;4.78;;
37997;SDS011;24079;51.824;4.682;2023-05-02T02:04:08;19.90;;;4.40;;
37997;SDS011;24079;51.824;4.682;2023-05-02T02:06:37;17.42;;;4.05;;
37997;SDS011;24079;51.824;4.682;2023-05-02T02:09:07;17.70;;;4.25;;
37997;SDS011;24079;51.824;4.682;2023-05-02T02:11:36;13.27;;;3.22;;
37997;SDS011;24079;51.824;4.682;2023-05-02T02:14:13;21.50;;;4.88;;
37997;SDS011;24079;51.824;4.682;2023-05-02T02:16:42;18.73;;;3.85;;
37997;SDS011;24079;51.824;4.682;2023-05-02T02:19:09;22.02;;;4.85;;
37997;SDS011;24079;51.824;4.682;2023-05-02T02:21:41;16.48;;;3.95;;
37997;SDS011;24079;51.824;4.682;2023-05-02T02:24:08;14.93;;;4.13;;
37997;SDS011;24079;51.824;4.682;2023-05-02T02:26:35;26.55;;;4.38;;
37997;SDS011;24079;51.824;4.682;2023-05-02T02:29:02;24.48;;;5.30;;
37997;SDS011;24079;51.824;4.682;2023-05-02T02:31:29;30.20;;;6.05;;
37997;SDS011;24079;51.824;4.682;2023-05-02T02:34:00;24.45;;;5.18;;
37997;SDS011;24079;51.824;4.682;2023-05-02T02:36:32;38.35;;;6.78;;
37997;SDS011;24079;51.824;4.682;2023-05-02T02:39:02;25.63;;;5.43;;
37997;SDS011;24079;51.824;4.682;2023-05-02T02:42:09;22.02;;;4.78;;
37997;SDS011;24079;51.824;4.682;2023-05-02T02:58:20;16.23;;;4.20;;
37997;SDS011;24079;51.824;4.682;2023-05-02T14:31:09;12.68;;;3.55;;
37997;SDS011;24079;51.824;4.682;2023-05-02T14:33:35;10.50;;;3.15;;
37997;SDS011;24079;51.824;4.682;2023-05-02T14:36:01;10.60;;;3.22;;
37997;SDS011;24079;51.824;4.682;2023-05-02T14:38:27;8.93;;;3.10;;
37997;SDS011;24079;51.824;4.682;2023-05-02T14:40:53;9.15;;;3.15;;
37997;SDS011;24079;51.824;4.682;2023-05-02T14:43:19;7.43;;;2.90;;
37997;SDS011;24079;51.824;4.682;2023-05-02T14:45:44;7.90;;;3.22;;
37997;SDS011;24079;51.824;4.682;2023-05-02T14:48:10;12.57;;;3.53;;
37997;SDS011;24079;51.824;4.682;2023-05-02T14:50:37;7.00;;;2.95;;
37997;SDS011;24079;51.824;4.682;2023-05-02T14:53:04;11.27;;;2.90;;
37997;SDS011;24079;51.824;4.682;2023-05-02T14:55:39;11.07;;;3.35;;
37997;SDS011;24079;51.824;4.682;2023-05-02T14:58:06;10.68;;;3.33;;
37997;SDS011;24079;51.824;4.682;2023-05-02T15:00:33;16.58;;;3.60;;
37997;SDS011;24079;51.824;4.682;2023-05-02T15:03:05;12.45;;;3.28;;
37997;SDS011;24079;51.824;4.682;2023-05-02T15:05:32;13.88;;;3.63;;
37997;SDS011;24079;51.824;4.682;2023-05-02T15:07:58;11.93;;;3.42;;
37997;SDS011;24079;51.824;4.682;2023-05-02T15:10:24;11.05;;;3.28;;
37997;SDS011;24079;51.824;4.682;2023-05-02T15:12:50;12.63;;;3.70;;
37997;SDS011;24079;51.824;4.682;2023-05-02T15:15:17;6.93;;;2.85;;
37997;SDS011;24079;51.824;4.682;2023-05-02T15:17:43;12.07;;;3.88;;
37997;SDS011;24079;51.824;4.682;2023-05-02T15:20:09;11.82;;;4.05;;
37997;SDS011;24079;51.824;4.682;2023-05-02T15:22:36;15.13;;;4.93;;
37997;SDS011;24079;51.824;4.682;2023-05-02T15:25:03;12.60;;;3.95;;
37997;SDS011;24079;51.824;4.682;2023-05-02T15:27:28;16.88;;;4.40;;
37997;SDS011;24079;51.824;4.682;2023-05-02T15:29:54;10.25;;;4.20;;
37997;SDS011;24079;51.824;4.682;2023-05-02T15:32:20;18.45;;;4.20;;
37997;SDS011;24079;51.824;4.682;2023-05-02T15:34:46;9.60;;;3.05;;
37997;SDS011;24079;51.824;4.682;2023-05-02T15:37:11;11.93;;;3.60;;
37997;SDS011;24079;51.824;4.682;2023-05-02T15:39:38;16.20;;;4.00;;
37997;SDS011;24079;51.824;4.682;2023-05-02T15:42:04;15.82;;;4.07;;
37997;SDS011;24079;51.824;4.682;2023-05-02T15:44:34;18.38;;;4.45;;
37997;SDS011;24079;51.824;4.682;2023-05-02T15:47:03;11.02;;;4.13;;
37997;SDS011;24079;51.824;4.682;2023-05-02T15:49:29;14.02;;;4.38;;
37997;SDS011;24079;51.824;4.682;2023-05-02T15:51:59;12.00;;;4.13;;
37997;SDS011;24079;51.824;4.682;2023-05-02T15:54:25;13.73;;;3.38;;
37997;SDS011;24079;51.824;4.682;2023-05-02T15:56:51;13.93;;;3.80;;
37997;SDS011;24079;51.824;4.682;2023-05-02T15:59:17;14.57;;;4.18;;
37997;SDS011;24079;51.824;4.682;2023-05-02T16:01:44;15.32;;;4.60;;
37997;SDS011;24079;51.824;4.682;2023-05-02T16:04:10;14.75;;;4.00;;
37997;SDS011;24079;51.824;4.682;2023-05-02T16:06:36;14.75;;;4.03;;
37997;SDS011;24079;51.824;4.682;2023-05-02T16:09:05;14.93;;;4.13;;
37997;SDS011;24079;51.824;4.682;2023-05-02T16:11:31;12.27;;;4.13;;
37997;SDS011;24079;51.824;4.682;2023-05-02T16:13:57;15.23;;;4.15;;
37997;SDS011;24079;51.824;4.682;2023-05-02T16:16:22;12.38;;;4.07;;
37997;SDS011;24079;51.824;4.682;2023-05-02T16:18:48;19.08;;;5.50;;
37997;SDS011;24079;51.824;4.682;2023-05-02T16:21:14;24.08;;;7.00;;
37997;SDS011;24079;51.824;4.682;2023-05-02T16:23:40;9.43;;;3.40;;
37997;SDS011;24079;51.824;4.682;2023-05-02T16:26:06;15.15;;;4.68;;
37997;SDS011;24079;51.824;4.682;2023-05-02T16:28:31;11.82;;;3.88;;
37997;SDS011;24079;51.824;4.682;2023-05-02T16:30:57;14.88;;;4.78;;
37997;SDS011;24079;51.824;4.682;2023-05-02T16:33:23;12.88;;;3.85;;
37997;SDS011;24079;51.824;4.682;2023-05-02T16:35:48;11.48;;;3.75;;
37997;SDS011;24079;51.824;4.682;2023-05-02T16:38:23;16.30;;;3.67;;
37997;SDS011;24079;51.824;4.682;2023-05-02T16:40:49;17.52;;;3.30;;
37997;SDS011;24079;51.824;4.682;2023-05-02T16:43:15;13.25;;;4.03;;
37997;SDS011;24079;51.824;4.682;2023-05-02T16:45:40;18.63;;;5.03;;
37997;SDS011;24079;51.824;4.682;2023-05-02T16:48:07;9.35;;;4.20;;
37997;SDS011;24079;51.824;4.682;2023-05-02T16:50:32;11.68;;;3.65;;
37997;SDS011;24079;51.824;4.682;2023-05-02T16:52:58;12.60;;;3.47;;
37997;SDS011;24079;51.824;4.682;2023-05-02T16:55:25;16.00;;;3.50;;
37997;SDS011;24079;51.824;4.682;2023-05-02T16:57:51;14.23;;;4.22;;
37997;SDS011;24079;51.824;4.682;2023-05-02T17:00:17;13.02;;;3.50;;
37997;SDS011;24079;51.824;4.682;2023-05-02T17:02:43;11.00;;;3.60;;
37997;SDS011;24079;51.824;4.682;2023-05-02T17:05:09;8.00;;;3.78;;
37997;SDS011;24079;51.824;4.682;2023-05-02T17:07:35;13.88;;;3.95;;
37997;SDS011;24079;51.824;4.682;2023-05-02T17:10:02;8.55;;;3.72;;
37997;SDS011;24079;51.824;4.682;2023-05-02T17:12:28;14.02;;;3.42;;
37997;SDS011;24079;51.824;4.682;2023-05-02T17:14:54;13.20;;;4.40;;
37997;SDS011;24079;51.824;4.682;2023-05-02T17:17:20;9.25;;;3.53;;
37997;SDS011;24079;51.824;4.682;2023-05-02T17:19:47;9.48;;;3.55;;
37997;SDS011;24079;51.824;4.682;2023-05-02T17:22:13;11.32;;;3.67;;
37997;SDS011;24079;51.824;4.682;2023-05-02T17:24:39;14.73;;;4.00;;
37997;SDS011;24079;51.824;4.682;2023-05-02T17:27:06;10.63;;;3.70;;
37997;SDS011;24079;51.824;4.682;2023-05-02T17:29:31;14.82;;;3.90;;
37997;SDS011;24079;51.824;4.682;2023-05-02T17:31:57;14.10;;;3.55;;
37997;SDS011;24079;51.824;4.682;2023-05-02T17:34:26;10.50;;;3.25;;
37997;SDS011;24079;51.824;4.682;2023-05-02T17:36:54;12.15;;;3.38;;
37997;SDS011;24079;51.824;4.682;2023-05-02T17:39:20;13.10;;;3.17;;
37997;SDS011;24079;51.824;4.682;2023-05-02T17:41:46;11.77;;;3.65;;
37997;SDS011;24079;51.824;4.682;2023-05-02T17:44:11;9.10;;;3.60;;
37997;SDS011;24079;51.824;4.682;2023-05-02T17:46:37;10.77;;;3.20;;
37997;SDS011;24079;51.824;4.682;2023-05-02T17:49:02;12.77;;;3.20;;
37997;SDS011;24079;51.824;4.682;2023-05-02T17:51:28;11.48;;;3.50;;
37997;SDS011;24079;51.824;4.682;2023-05-02T17:53:54;12.52;;;3.38;;
37997;SDS011;24079;51.824;4.682;2023-05-02T17:56:20;7.88;;;3.10;;
37997;SDS011;24079;51.824;4.682;2023-05-02T17:58:46;11.88;;;3.00;;
37997;SDS011;24079;51.824;4.682;2023-05-02T18:01:12;13.60;;;3.22;;
37997;SDS011;24079;51.824;4.682;2023-05-02T18:03:38;8.00;;;3.10;;
37997;SDS011;24079;51.824;4.682;2023-05-02T18:06:04;9.20;;;2.58;;
37997;SDS011;24079;51.824;4.682;2023-05-02T18:08:30;9.93;;;2.70;;
37997;SDS011;24079;51.824;4.682;2023-05-02T18:10:55;14.93;;;3.00;;
37997;SDS011;24079;51.824;4.682;2023-05-02T18:13:25;10.52;;;2.65;;
37997;SDS011;24079;51.824;4.682;2023-05-02T18:15:57;5.20;;;2.80;;
37997;SDS011;24079;51.824;4.682;2023-05-02T18:18:23;6.53;;;2.65;;
37997;SDS011;24079;51.824;4.682;2023-05-02T18:20:49;8.85;;;2.83;;
37997;SDS011;24079;51.824;4.682;2023-05-02T18:23:15;8.23;;;2.75;;
37997;SDS011;24079;51.824;4.682;2023-05-02T18:25:41;9.63;;;2.60;;
37997;SDS011;24079;51.824;4.682;2023-05-02T18:28:07;11.70;;;2.83;;
37997;SDS011;24079;51.824;4.682;2023-05-02T18:30:36;7.82;;;2.53;;
37997;SDS011;24079;51.824;4.682;2023-05-02T18:33:02;11.45;;;2.70;;
37997;SDS011;24079;51.824;4.682;2023-05-02T18:35:28;10.07;;;3.03;;
37997;SDS011;24079;51.824;4.682;2023-05-02T18:37:54;6.72;;;2.63;;
37997;SDS011;24079;51.824;4.682;2023-05-02T18:40:21;11.10;;;2.85;;
37997;SDS011;24079;51.824;4.682;2023-05-02T18:42:47;7.15;;;2.40;;
37997;SDS011;24079;51.824;4.682;2023-05-02T18:45:13;8.35;;;2.50;;
37997;SDS011;24079;51.824;4.682;2023-05-02T18:47:41;12.55;;;3.60;;
37997;SDS011;24079;51.824;4.682;2023-05-02T18:50:07;6.28;;;2.42;;
37997;SDS011;24079;51.824;4.682;2023-05-02T18:52:33;6.85;;;2.47;;
37997;SDS011;24079;51.824;4.682;2023-05-02T18:54:59;5.20;;;2.30;;
37997;SDS011;24079;51.824;4.682;2023-05-02T18:57:28;7.43;;;2.17;;
37997;SDS011;24079;51.824;4.682;2023-05-02T18:59:54;6.07;;;2.72;;
37997;SDS011;24079;51.824;4.682;2023-05-02T19:02:20;11.90;;;2.33;;
37997;SDS011;24079;51.824;4.682;2023-05-02T19:04:47;8.07;;;2.10;;
37997;SDS011;24079;51.824;4.682;2023-05-02T19:07:12;7.80;;;2.55;;
37997;SDS011;24079;51.824;4.682;2023-05-02T19:09:38;6.28;;;2.40;;
37997;SDS011;24079;51.824;4.682;2023-05-02T19:12:04;9.23;;;2.58;;
37997;SDS011;24079;51.824;4.682;2023-05-02T19:14:30;7.30;;;2.92;;
37997;SDS011;24079;51.824;4.682;2023-05-02T19:16:57;4.88;;;2.25;;
37997;SDS011;24079;51.824;4.682;2023-05-02T19:19:23;7.80;;;2.90;;
37997;SDS011;24079;51.824;4.682;2023-05-02T19:21:49;9.40;;;2.67;;
37997;SDS011;24079;51.824;4.682;2023-05-02T19:24:14;4.93;;;2.50;;
37997;SDS011;24079;51.824;4.682;2023-05-02T19:26:42;10.10;;;3.03;;
37997;SDS011;24079;51.824;4.682;2023-05-02T19:29:08;6.82;;;2.20;;
37997;SDS011;24079;51.824;4.682;2023-05-02T19:31:33;4.82;;;2.22;;
37997;SDS011;24079;51.824;4.682;2023-05-02T19:33:59;9.23;;;2.58;;
37997;SDS011;24079;51.824;4.682;2023-05-02T19:36:25;6.93;;;2.30;;
37997;SDS011;24079;51.824;4.682;2023-05-02T19:38:51;4.90;;;2.03;;
37997;SDS011;24079;51.824;4.682;2023-05-02T19:41:18;6.35;;;2.30;;
37997;SDS011;24079;51.824;4.682;2023-05-02T19:43:46;11.75;;;2.30;;
37997;SDS011;24079;51.824;4.682;2023-05-02T19:46:15;3.83;;;2.10;;
37997;SDS011;24079;51.824;4.682;2023-05-02T19:48:41;8.57;;;2.50;;
37997;SDS011;24079;51.824;4.682;2023-05-02T19:51:07;8.82;;;2.58;;
37997;SDS011;24079;51.824;4.682;2023-05-02T19:53:34;6.55;;;2.40;;
37997;SDS011;24079;51.824;4.682;2023-05-02T19:56:01;8.95;;;2.40;;
37997;SDS011;24079;51.824;4.682;2023-05-02T19:58:28;6.35;;;2.20;;
37997;SDS011;24079;51.824;4.682;2023-05-02T20:00:53;5.05;;;2.05;;
37997;SDS011;24079;51.824;4.682;2023-05-02T20:03:19;5.05;;;2.38;;
37997;SDS011;24079;51.824;4.682;2023-05-02T20:05:45;7.93;;;2.40;;
37997;SDS011;24079;51.824;4.682;2023-05-02T20:08:11;9.93;;;2.53;;
37997;SDS011;24079;51.824;4.682;2023-05-02T20:10:37;8.55;;;2.72;;
37997;SDS011;24079;51.824;4.682;2023-05-02T20:13:03;9.50;;;2.72;;
37997;SDS011;24079;51.824;4.682;2023-05-02T20:15:29;7.10;;;2.60;;
37997;SDS011;24079;51.824;4.682;2023-05-02T20:17:55;10.77;;;2.72;;
37997;SDS011;24079;51.824;4.682;2023-05-02T20:20:24;6.80;;;2.08;;
37997;SDS011;24079;51.824;4.682;2023-05-02T20:22:50;5.05;;;2.33;;
37997;SDS011;24079;51.824;4.682;2023-05-02T20:25:18;4.85;;;2.42;;
37997;SDS011;24079;51.824;4.682;2023-05-02T20:27:46;5.97;;;2.53;;
37997;SDS011;24079;51.824;4.682;2023-05-02T20:30:15;15.68;;;3.20;;
37997;SDS011;24079;51.824;4.682;2023-05-02T20:32:41;7.45;;;2.10;;
37997;SDS011;24079;51.824;4.682;2023-05-02T20:35:07;5.40;;;2.63;;
37997;SDS011;24079;51.824;4.682;2023-05-02T20:37:33;12.57;;;2.88;;
37997;SDS011;24079;51.824;4.682;2023-05-02T20:39:58;8.23;;;2.53;;
37997;SDS011;24079;51.824;4.682;2023-05-02T20:42:24;6.97;;;2.05;;
37997;SDS011;24079;51.824;4.682;2023-05-02T20:44:57;6.28;;;2.58;;
37997;SDS011;24079;51.824;4.682;2023-05-02T20:47:25;5.00;;;2.10;;
37997;SDS011;24079;51.824;4.682;2023-05-02T20:49:52;5.35;;;2.20;;
37997;SDS011;24079;51.824;4.682;2023-05-02T20:52:18;6.03;;;2.63;;
37997;SDS011;24079;51.824;4.682;2023-05-02T20:54:45;5.75;;;2.47;;
37997;SDS011;24079;51.824;4.682;2023-05-02T20:57:12;4.82;;;2.28;;
37997;SDS011;24079;51.824;4.682;2023-05-02T20:59:38;11.13;;;2.45;;
37997;SDS011;24079;51.824;4.682;2023-05-02T21:02:05;4.18;;;2.10;;
37997;SDS011;24079;51.824;4.682;2023-05-02T21:04:32;8.10;;;2.25;;
37997;SDS011;24079;51.824;4.682;2023-05-02T21:06:58;13.32;;;2.63;;
37997;SDS011;24079;51.824;4.682;2023-05-02T21:09:27;6.18;;;2.45;;
37997;SDS011;24079;51.824;4.682;2023-05-02T21:11:53;6.22;;;2.40;;
37997;SDS011;24079;51.824;4.682;2023-05-02T21:14:18;6.53;;;2.15;;
37997;SDS011;24079;51.824;4.682;2023-05-02T21:16:46;7.00;;;2.20;;
37997;SDS011;24079;51.824;4.682;2023-05-02T21:19:13;7.88;;;2.65;;
37997;SDS011;24079;51.824;4.682;2023-05-02T21:21:39;4.63;;;2.22;;
37997;SDS011;24079;51.824;4.682;2023-05-02T21:24:05;6.80;;;2.40;;
37997;SDS011;24079;51.824;4.682;2023-05-02T21:26:31;5.63;;;2.40;;
37997;SDS011;24079;51.824;4.682;2023-05-02T21:28:57;6.82;;;2.35;;
37997;SDS011;24079;51.824;4.682;2023-05-02T21:31:23;6.78;;;2.80;;
37997;SDS011;24079;51.824;4.682;2023-05-02T21:33:48;6.15;;;2.60;;
37997;SDS011;24079;51.824;4.682;2023-05-02T21:36:14;7.47;;;2.38;;
37997;SDS011;24079;51.824;4.682;2023-05-02T21:38:39;8.00;;;2.75;;
37997;SDS011;24079;51.824;4.682;2023-05-02T21:41:05;5.20;;;2.08;;
37997;SDS011;24079;51.824;4.682;2023-05-02T21:43:33;5.45;;;2.90;;
37997;SDS011;24079;51.824;4.682;2023-05-02T21:45:59;5.30;;;2.50;;
37997;SDS011;24079;51.824;4.682;2023-05-02T21:48:25;7.65;;;2.55;;
37997;SDS011;24079;51.824;4.682;2023-05-02T21:50:51;7.43;;;2.65;;
37997;SDS011;24079;51.824;4.682;2023-05-02T21:53:16;7.28;;;2.05;;
37997;SDS011;24079;51.824;4.682;2023-05-02T21:55:42;5.32;;;2.35;;
37997;SDS011;24079;51.824;4.682;2023-05-02T21:58:08;5.85;;;2.40;;
37997;SDS011;24079;51.824;4.682;2023-05-02T22:00:38;4.40;;;2.20;;
37997;SDS011;24079;51.824;4.682;2023-05-02T22:03:05;6.32;;;2.22;;
37997;SDS011;24079;51.824;4.682;2023-05-02T22:05:38;5.25;;;1.80;;
37997;SDS011;24079;51.824;4.682;2023-05-02T22:08:08;6.45;;;2.10;;
37997;SDS011;24079;51.824;4.682;2023-05-02T22:10:36;9.27;;;2.28;;
37997;SDS011;24079;51.824;4.682;2023-05-02T22:13:06;7.60;;;2.15;;
37997;SDS011;24079;51.824;4.682;2023-05-02T22:15:34;3.47;;;2.03;;
37997;SDS011;24079;51.824;4.682;2023-05-02T22:18:00;7.30;;;2.60;;
37997;SDS011;24079;51.824;4.682;2023-05-02T22:20:30;4.95;;;2.17;;
37997;SDS011;24079;51.824;4.682;2023-05-02T22:22:56;3.78;;;2.10;;
37997;SDS011;24079;51.824;4.682;2023-05-02T22:25:21;6.88;;;2.70;;
37997;SDS011;24079;51.824;4.682;2023-05-02T22:27:47;3.78;;;2.10;;
37997;SDS011;24079;51.824;4.682;2023-05-02T22:30:12;6.10;;;2.55;;
37997;SDS011;24079;51.824;4.682;2023-05-02T22:32:38;10.52;;;2.78;;
37997;SDS011;24079;51.824;4.682;2023-05-02T22:35:05;7.72;;;2.75;;
37997;SDS011;24079;51.824;4.682;2023-05-02T22:37:31;4.03;;;2.10;;
37997;SDS011;24079;51.824;4.682;2023-05-02T22:39:57;4.60;;;2.38;;
37997;SDS011;24079;51.824;4.682;2023-05-02T22:42:22;4.60;;;2.30;;
37997;SDS011;24079;51.824;4.682;2023-05-02T22:44:51;6.60;;;2.80;;
37997;SDS011;24079;51.824;4.682;2023-05-02T22:47:17;4.57;;;2.70;;
37997;SDS011;24079;51.824;4.682;2023-05-02T22:49:43;5.93;;;2.75;;
37997;SDS011;24079;51.824;4.682;2023-05-02T22:52:10;6.43;;;3.22;;
37997;SDS011;24079;51.824;4.682;2023-05-02T22:54:38;8.38;;;2.92;;
37997;SDS011;24079;51.824;4.682;2023-05-02T22:57:04;6.72;;;2.80;;
37997;SDS011;24079;51.824;4.682;2023-05-02T22:59:29;7.40;;;2.63;;
37997;SDS011;24079;51.824;4.682;2023-05-02T23:01:57;5.60;;;2.60;;
37997;SDS011;24079;51.824;4.682;2023-05-02T23:04:23;5.70;;;2.47;;
37997;SDS011;24079;51.824;4.682;2023-05-02T23:06:49;8.02;;;2.78;;
37997;SDS011;24079;51.824;4.682;2023-05-02T23:09:15;7.47;;;2.83;;
37997;SDS011;24079;51.824;4.682;2023-05-02T23:11:41;4.75;;;2.40;;
37997;SDS011;24079;51.824;4.682;2023-05-02T23:14:07;8.10;;;2.83;;
37997;SDS011;24079;51.824;4.682;2023-05-02T23:16:32;6.95;;;2.85;;
37997;SDS011;24079;51.824;4.682;2023-05-02T23:18:58;4.82;;;2.90;;
37997;SDS011;24079;51.824;4.682;2023-05-02T23:21:23;5.78;;;2.80;;
37997;SDS011;24079;51.824;4.682;2023-05-02T23:23:50;6.75;;;2.97;;
37997;SDS011;24079;51.824;4.682;2023-05-02T23:26:16;6.35;;;2.85;;
37997;SDS011;24079;51.824;4.682;2023-05-02T23:28:42;7.13;;;2.63;;
37997;SDS011;24079;51.824;4.682;2023-05-02T23:31:07;8.40;;;3.38;;
37997;SDS011;24079;51.824;4.682;2023-05-02T23:33:34;9.20;;;3.53;;
37997;SDS011;24079;51.824;4.682;2023-05-02T23:36:00;6.75;;;2.83;;
37997;SDS011;24079;51.824;4.682;2023-05-02T23:38:26;5.00;;;2.80;;
37997;SDS011;24079;51.824;4.682;2023-05-02T23:40:53;5.85;;;2.88;;
37997;SDS011;24079;51.824;4.682;2023-05-02T23:43:19;7.15;;;3.45;;
37997;SDS011;24079;51.824;4.682;2023-05-02T23:45:46;7.03;;;3.30;;
37997;SDS011;24079;51.824;4.682;2023-05-02T23:48:11;6.03;;;3.40;;
37997;SDS011;24079;51.824;4.682;2023-05-02T23:50:37;10.23;;;3.72;;
37997;SDS011;24079;51.824;4.682;2023-05-02T23:53:03;7.60;;;3.42;;
37997;SDS011;24079;51.824;4.682;2023-05-02T23:55:28;6.72;;;3.40;;
37997;SDS011;24079;51.824;4.682;2023-05-02T23:57:54;8.35;;;3.65;;
